createdAt,value
2022-08-12T00:01:02.101Z,26.70
2022-08-12T00:03:47.611Z,26.70
2022-08-12T00:06:33.596Z,26.70
2022-08-12T00:09:25.759Z,26.60
2022-08-12T00:12:12.255Z,26.60
2022-08-12T00:14:57.780Z,26.60
2022-08-12T00:17:43.296Z,26.60
2022-08-12T00:20:30.377Z,26.60
2022-08-12T00:23:16.916Z,26.50
2022-08-12T00:26:20.731Z,26.50
2022-08-12T00:29:10.877Z,26.50
2022-08-12T00:31:56.384Z,26.40
2022-08-12T00:34:41.989Z,26.40
2022-08-12T00:37:28.429Z,26.40
2022-08-12T00:40:14.719Z,26.40
2022-08-12T00:42:42.855Z,26.40
2022-08-12T00:45:10.105Z,26.30
2022-08-12T00:47:39.004Z,26.30
2022-08-12T00:50:09.195Z,26.30
2022-08-12T00:52:36.077Z,26.30
2022-08-12T00:55:04.815Z,26.20
2022-08-12T00:57:36.957Z,26.20
2022-08-12T01:00:14.936Z,26.20
2022-08-12T01:02:46.206Z,26.20
2022-08-12T01:05:34.579Z,26.20
2022-08-12T01:08:20.284Z,26.20
2022-08-12T01:11:06.138Z,26.20
2022-08-12T01:13:36.084Z,26.20
2022-08-12T01:16:05.676Z,26.20
2022-08-12T01:18:35.494Z,26.20
2022-08-12T01:21:12.141Z,26.10
2022-08-12T01:24:29.478Z,26.20
2022-08-12T01:26:59.864Z,26.10
2022-08-12T01:29:28.540Z,26.10
2022-08-12T01:32:03.388Z,26.10
2022-08-12T01:34:38.807Z,26.10
2022-08-12T01:37:08.764Z,26.10
2022-08-12T01:40:34.533Z,26.10
2022-08-12T01:42:46.390Z,26.00
2022-08-12T01:45:14.248Z,26.00
2022-08-12T01:48:29.174Z,26.00
2022-08-12T01:51:06.458Z,26.00
2022-08-12T01:54:00.140Z,26.00
2022-08-12T01:56:31.064Z,26.00
2022-08-12T01:59:21.588Z,26.00
2022-08-12T02:01:50.534Z,26.00
2022-08-12T02:04:38.596Z,26.00
2022-08-12T02:07:24.036Z,26.00
2022-08-12T02:10:50.720Z,25.90
2022-08-12T02:13:48.894Z,26.00
2022-08-12T02:16:36.274Z,25.90
2022-08-12T02:19:34.664Z,25.90
2022-08-12T02:22:38.260Z,25.90
2022-08-12T02:25:11.322Z,25.90
2022-08-12T02:27:45.620Z,25.80
2022-08-12T02:30:19.431Z,25.80
2022-08-12T02:32:48.830Z,25.80
2022-08-12T02:35:27.284Z,25.80
2022-08-12T02:37:59.933Z,25.80
2022-08-12T02:40:28.973Z,25.80
2022-08-12T02:43:12.572Z,25.80
2022-08-12T02:45:57.975Z,25.70
2022-08-12T02:48:49.662Z,25.80
2022-08-12T02:51:20.430Z,25.70
2022-08-12T02:54:02.967Z,25.70
2022-08-12T02:56:37.504Z,25.70
2022-08-12T02:59:04.804Z,25.70
2022-08-12T03:01:47.514Z,25.70
2022-08-12T03:04:24.511Z,25.70
2022-08-12T03:07:09.864Z,25.70
2022-08-12T03:10:05.522Z,25.60
2022-08-12T03:12:49.255Z,25.60
2022-08-12T03:15:22.279Z,25.60
2022-08-12T03:18:25.601Z,25.60
2022-08-12T03:20:47.778Z,25.60
2022-08-12T03:23:28.578Z,25.60
2022-08-12T03:25:58.796Z,25.60
2022-08-12T03:28:44.649Z,25.50
2022-08-12T03:31:11.545Z,25.50
2022-08-12T03:33:45.627Z,25.50
2022-08-12T03:36:29.593Z,25.50
2022-08-12T03:39:35.498Z,25.50
2022-08-12T03:42:06.879Z,25.50
2022-08-12T03:45:07.185Z,25.50
2022-08-12T03:48:02.954Z,25.50
2022-08-12T03:50:49.288Z,25.50
2022-08-12T03:53:40.455Z,25.40
2022-08-12T03:56:26.016Z,25.40
2022-08-12T03:59:13.471Z,25.40
2022-08-12T04:01:41.261Z,25.40
2022-08-12T04:04:10.945Z,25.40
2022-08-12T04:06:45.257Z,25.40
2022-08-12T04:09:16.734Z,25.30
2022-08-12T04:12:04.204Z,25.40
2022-08-12T04:17:00.392Z,25.30
2022-08-12T04:19:28.372Z,25.30
2022-08-12T04:22:01.308Z,25.30
2022-08-12T04:24:38.125Z,25.30
2022-08-12T04:27:10.212Z,25.20
2022-08-12T04:30:29.339Z,25.30
2022-08-12T04:32:25.867Z,25.20
2022-08-12T04:34:53.077Z,25.20
2022-08-12T04:37:19.963Z,25.20
2022-08-12T04:39:48.186Z,25.20
2022-08-12T04:42:15.119Z,25.20
2022-08-12T04:44:42.467Z,25.10
2022-08-12T04:47:14.370Z,25.20
2022-08-12T04:49:43.279Z,25.20
2022-08-12T04:52:10.513Z,25.20
2022-08-12T04:54:37.758Z,25.20
2022-08-12T04:57:05.931Z,25.30
2022-08-12T04:59:46.781Z,25.30
2022-08-12T05:02:20.463Z,25.40
2022-08-12T05:05:00.659Z,25.40
2022-08-12T05:07:28.397Z,25.40
2022-08-12T05:10:00.441Z,25.40
2022-08-12T05:12:34.397Z,25.50
2022-08-12T05:15:01.746Z,25.50
2022-08-12T05:17:28.610Z,25.50
2022-08-12T05:19:57.128Z,25.50
2022-08-12T05:22:27.884Z,25.50
2022-08-12T05:24:54.710Z,25.50
2022-08-12T05:27:22.880Z,25.50
2022-08-12T05:30:06.371Z,25.50
2022-08-12T05:32:37.057Z,25.50
2022-08-12T05:35:06.640Z,25.50
2022-08-12T05:37:34.811Z,25.50
2022-08-12T05:40:08.311Z,25.50
2022-08-12T05:42:37.851Z,25.50
2022-08-12T05:45:05.135Z,25.50
2022-08-12T05:47:42.785Z,25.50
2022-08-12T05:50:19.737Z,25.50
2022-08-12T05:52:48.288Z,25.50
2022-08-12T05:55:15.426Z,25.50
2022-08-12T05:57:44.196Z,25.50
2022-08-12T06:00:11.348Z,25.50
2022-08-12T06:02:38.110Z,25.50
2022-08-12T06:05:07.450Z,25.50
2022-08-12T06:08:02.242Z,25.50
2022-08-12T06:10:31.733Z,25.50
2022-08-12T06:13:03.664Z,25.50
2022-08-12T06:15:31.680Z,25.50
2022-08-12T06:18:16.325Z,25.50
2022-08-12T06:20:47.558Z,25.50
2022-08-12T06:23:15.288Z,25.50
2022-08-12T06:25:43.548Z,25.50
2022-08-12T06:28:21.282Z,25.40
2022-08-12T06:31:08.205Z,25.50
2022-08-12T06:33:59.438Z,25.40
2022-08-12T06:36:24.980Z,25.50
2022-08-12T06:38:57.106Z,25.40
2022-08-12T06:42:02.481Z,25.40
2022-08-12T06:44:29.360Z,25.40
2022-08-12T06:46:56.803Z,25.40
2022-08-12T06:49:25.341Z,25.40
2022-08-12T06:51:57.063Z,25.40
2022-08-12T06:54:31.146Z,25.40
2022-08-12T06:57:57.480Z,25.30
2022-08-12T06:59:44.889Z,25.40
2022-08-12T07:02:11.585Z,25.30
2022-08-12T07:04:39.188Z,25.30
2022-08-12T07:07:10.150Z,25.30
2022-08-12T07:09:59.496Z,25.40
2022-08-12T07:12:27.669Z,25.30
2022-08-12T07:14:55.265Z,25.40
2022-08-12T07:17:22.010Z,25.40
2022-08-12T07:19:51.812Z,25.40
2022-08-12T07:22:18.799Z,25.40
2022-08-12T07:25:05.742Z,25.40
2022-08-12T07:27:40.570Z,25.40
2022-08-12T07:30:08.612Z,25.40
2022-08-12T07:32:35.582Z,25.40
2022-08-12T07:35:04.073Z,25.40
2022-08-12T07:37:31.441Z,25.40
2022-08-12T07:40:00.353Z,25.40
2022-08-12T07:42:29.167Z,25.40
2022-08-12T07:44:56.467Z,25.40
2022-08-12T07:47:24.121Z,25.40
2022-08-12T07:50:04.532Z,25.40
2022-08-12T07:52:38.639Z,25.40
2022-08-12T07:55:06.739Z,25.50
2022-08-12T07:57:33.731Z,25.50
2022-08-12T08:00:06.243Z,25.50
2022-08-12T08:02:35.488Z,25.50
2022-08-12T08:05:02.640Z,25.50
2022-08-12T08:07:30.625Z,25.50
2022-08-12T08:10:01.232Z,25.50
2022-08-12T08:12:47.852Z,25.50
2022-08-12T08:15:15.784Z,25.50
2022-08-12T08:18:04.212Z,25.50
2022-08-12T08:20:34.454Z,25.50
2022-08-12T08:23:07.946Z,25.50
2022-08-12T08:25:37.671Z,25.50
2022-08-12T08:28:14.193Z,25.50
2022-08-12T08:30:44.339Z,25.50
2022-08-12T08:33:24.759Z,25.50
2022-08-12T08:36:02.108Z,25.50
2022-08-12T08:38:32.691Z,25.50
2022-08-12T08:42:17.011Z,25.50
2022-08-12T08:44:10.906Z,25.60
2022-08-12T08:46:39.119Z,25.60
2022-08-12T08:49:06.317Z,25.60
2022-08-12T08:51:33.263Z,25.60
2022-08-12T08:54:00.002Z,25.60
2022-08-12T08:56:29.124Z,25.60
2022-08-12T08:58:57.536Z,25.60
2022-08-12T09:01:25.501Z,25.60
2022-08-12T09:05:08.572Z,25.70
2022-08-12T09:06:41.923Z,25.70
2022-08-12T09:09:20.708Z,25.70
2022-08-12T09:12:11.016Z,25.70
2022-08-12T09:14:54.221Z,25.70
2022-08-12T09:17:22.243Z,25.70
2022-08-12T09:19:53.641Z,25.70
2022-08-12T09:22:28.618Z,25.80
2022-08-12T09:24:59.811Z,25.80
2022-08-12T09:30:17.935Z,25.80
2022-08-12T09:33:18.892Z,25.80
2022-08-12T09:36:03.192Z,25.80
2022-08-12T09:42:09.601Z,25.80
2022-08-12T09:44:40.265Z,25.90
2022-08-12T09:46:56.302Z,25.90
2022-08-12T09:49:25.083Z,25.90
2022-08-12T09:51:55.155Z,26.00
2022-08-12T09:54:33.151Z,26.00
2022-08-12T09:58:45.792Z,26.00
2022-08-12T10:00:13.440Z,26.00
2022-08-12T10:03:31.991Z,26.10
2022-08-12T10:06:20.045Z,26.10
2022-08-12T10:08:52.277Z,26.10
2022-08-12T10:12:09.904Z,26.20
2022-08-12T10:14:34.133Z,26.20
2022-08-12T10:17:01.681Z,26.20
2022-08-12T10:19:36.521Z,26.20
2022-08-12T10:22:16.481Z,26.20
2022-08-12T10:25:04.726Z,26.30
2022-08-12T10:28:07.062Z,26.30
2022-08-12T10:30:43.989Z,26.40
2022-08-12T10:33:18.901Z,26.40
2022-08-12T10:35:46.114Z,26.40
2022-08-12T10:38:34.847Z,26.40
2022-08-12T10:41:22.587Z,26.50
2022-08-12T10:44:12.479Z,26.50
2022-08-12T10:46:45.928Z,26.50
2022-08-12T10:50:02.762Z,26.50
2022-08-12T10:52:34.959Z,26.60
2022-08-12T10:54:56.008Z,26.60
2022-08-12T10:58:12.897Z,26.60
2022-08-12T11:00:34.111Z,26.70
2022-08-12T11:04:25.036Z,26.70
2022-08-12T11:07:08.650Z,26.70
2022-08-12T11:08:42.776Z,26.80
2022-08-12T11:11:16.879Z,26.80
2022-08-12T11:13:49.058Z,26.80
2022-08-12T11:16:23.398Z,26.80
2022-08-12T11:18:56.901Z,26.90
2022-08-12T11:21:51.194Z,26.90
2022-08-12T11:26:59.885Z,26.90
2022-08-12T11:30:02.376Z,27.00
2022-08-12T11:32:15.514Z,27.10
2022-08-12T11:34:53.001Z,27.10
2022-08-12T11:37:25.640Z,27.10
2022-08-12T11:42:35.835Z,27.20
2022-08-12T11:45:10.354Z,27.20
2022-08-12T11:47:40.309Z,27.20
2022-08-12T11:50:07.950Z,27.30
2022-08-12T11:52:55.552Z,27.30
2022-08-12T11:55:24.370Z,27.30
2022-08-12T11:58:17.295Z,27.30
2022-08-12T12:03:43.691Z,27.30
2022-08-12T12:06:17.852Z,27.40
2022-08-12T12:08:50.430Z,27.40
2022-08-12T12:11:19.662Z,27.40
2022-08-12T12:14:08.532Z,27.40
2022-08-12T12:16:33.608Z,27.40
2022-08-12T12:19:05.539Z,27.50
2022-08-12T12:21:48.460Z,27.50
2022-08-12T12:24:21.463Z,27.50
2022-08-12T12:26:59.707Z,27.60
2022-08-12T12:30:19.469Z,27.60
2022-08-12T12:32:15.748Z,27.60
2022-08-12T12:35:14.418Z,27.80
2022-08-12T12:38:05.162Z,27.90
2022-08-12T12:40:16.066Z,27.90
2022-08-12T12:42:56.035Z,27.90
2022-08-12T12:45:27.644Z,27.90
2022-08-12T12:48:07.893Z,27.90
2022-08-12T12:50:42.359Z,27.90
2022-08-12T12:53:15.704Z,27.90
2022-08-12T13:11:04.424Z,28.00
2022-08-12T13:14:07.383Z,28.10
2022-08-12T13:16:21.683Z,28.10
2022-08-12T13:18:53.568Z,28.10
2022-08-12T13:21:33.486Z,28.20
2022-08-12T13:24:09.630Z,28.30
2022-08-12T13:26:40.014Z,28.40
2022-08-12T13:29:11.216Z,28.50
2022-08-12T13:31:46.614Z,28.50
2022-08-12T13:34:32.523Z,28.50
2022-08-12T13:37:04.410Z,28.60
2022-08-12T13:39:36.006Z,28.60
2022-08-12T14:15:34.957Z,28.80
2022-08-12T14:18:07.282Z,29.00
2022-08-12T14:20:34.534Z,28.90
2022-08-12T14:24:02.069Z,29.00
2022-08-12T15:07:33.338Z,29.00
2022-08-12T16:34:59.993Z,29.10
2022-08-12T16:37:58.873Z,29.70
2022-08-12T16:40:15.463Z,29.70
2022-08-12T16:42:54.201Z,29.80
2022-08-12T16:48:34.062Z,29.90
2022-08-12T16:51:08.223Z,30.00
2022-08-12T16:53:44.397Z,30.00
2022-08-12T16:56:17.209Z,30.00
2022-08-12T16:58:46.950Z,30.00
2022-08-12T17:01:14.457Z,29.90
2022-08-12T17:03:52.059Z,29.90
2022-08-12T17:06:22.659Z,29.80
2022-08-12T17:09:02.652Z,29.80
2022-08-12T17:11:31.055Z,29.80
2022-08-12T17:13:59.435Z,29.80
2022-08-12T17:16:30.044Z,29.70
2022-08-12T17:18:59.559Z,29.70
2022-08-12T17:21:41.722Z,29.60
2022-08-12T17:24:21.648Z,29.60
2022-08-12T17:26:53.727Z,29.60
2022-08-12T17:29:32.316Z,29.60
2022-08-12T17:32:10.055Z,29.70
2022-08-12T17:34:55.390Z,29.70
2022-08-12T17:37:22.420Z,29.70
2022-08-12T17:40:15.642Z,29.70
2022-08-12T17:42:42.823Z,29.70
2022-08-12T17:45:15.589Z,29.70
2022-08-12T17:48:05.087Z,29.70
2022-08-12T17:50:38.897Z,29.70
2022-08-12T17:53:07.840Z,29.70
2022-08-12T17:55:44.763Z,29.70
2022-08-12T17:58:21.417Z,29.70
2022-08-12T18:00:50.530Z,29.70
2022-08-12T18:04:04.633Z,29.70
2022-08-12T18:06:08.610Z,29.70
2022-08-12T18:08:54.917Z,29.70
2022-08-12T18:12:03.673Z,29.70
2022-08-12T18:14:30.227Z,29.70
2022-08-12T18:17:00.791Z,29.70
2022-08-12T18:20:03.888Z,29.70
2022-08-12T18:22:17.585Z,29.70
2022-08-12T18:24:50.519Z,29.70
2022-08-12T18:27:44.846Z,29.80
2022-08-12T18:30:16.339Z,29.80
2022-08-12T18:32:58.448Z,29.70
2022-08-12T18:35:30.197Z,29.80
2022-08-12T18:38:16.718Z,29.80
2022-08-12T18:41:03.842Z,29.80
2022-08-12T18:43:37.126Z,29.80
2022-08-12T18:46:18.407Z,29.80
2022-08-12T18:48:46.792Z,29.80
2022-08-12T18:51:21.989Z,29.80
2022-08-12T18:54:08.679Z,29.80
2022-08-12T18:56:40.496Z,29.80
2022-08-12T18:59:10.111Z,29.80
2022-08-12T19:02:19.166Z,29.80
2022-08-12T19:04:30.634Z,29.80
2022-08-12T19:06:59.167Z,29.80
2022-08-12T19:09:57.388Z,29.80
2022-08-12T19:12:43.358Z,29.80
2022-08-12T19:15:25.656Z,29.70
2022-08-12T19:18:00.424Z,29.70
2022-08-12T19:20:30.033Z,29.70
2022-08-12T19:22:59.641Z,29.70
2022-08-12T19:26:01.517Z,29.70
2022-08-12T19:28:30.304Z,29.70
2022-08-12T19:31:44.599Z,29.70
2022-08-12T19:35:53.857Z,29.70
2022-08-12T19:38:04.569Z,29.70
2022-08-12T19:40:20.349Z,29.60
2022-08-12T19:43:02.085Z,29.60
2022-08-12T19:45:48.730Z,29.60
2022-08-12T19:48:21.440Z,29.60
2022-08-12T19:50:52.282Z,29.60
2022-08-12T19:53:22.980Z,29.50
2022-08-12T19:55:52.690Z,29.50
2022-08-12T19:58:21.206Z,29.50
2022-08-12T20:00:53.529Z,29.50
2022-08-12T20:03:40.007Z,29.50
2022-08-12T20:06:21.774Z,29.50
2022-08-12T20:08:56.569Z,29.40
2022-08-12T20:12:10.325Z,29.40
2022-08-12T20:14:17.835Z,29.40
2022-08-12T20:16:51.900Z,29.30
2022-08-12T20:19:23.338Z,29.30
2022-08-12T20:21:50.693Z,29.30
2022-08-12T20:24:19.334Z,29.30
2022-08-12T20:26:48.110Z,29.20
2022-08-12T20:29:16.677Z,29.20
2022-08-12T20:31:43.930Z,29.20
2022-08-12T20:34:12.249Z,29.20
2022-08-12T20:36:44.386Z,29.10
2022-08-12T20:39:35.962Z,29.10
2022-08-12T20:42:07.492Z,29.10
2022-08-12T20:44:39.884Z,29.00
2022-08-12T20:47:18.089Z,29.00
2022-08-12T20:49:55.517Z,29.00
2022-08-12T20:52:29.849Z,28.90
2022-08-12T20:54:57.808Z,28.90
2022-08-12T20:57:25.200Z,28.90
2022-08-12T21:00:08.925Z,28.80
2022-08-12T21:02:39.420Z,28.80
2022-08-12T21:05:26.268Z,28.80
2022-08-12T21:08:13.058Z,28.70
2022-08-12T21:10:41.999Z,28.70
2022-08-12T21:13:20.134Z,28.60
2022-08-12T21:15:55.223Z,28.60
2022-08-12T21:18:30.624Z,28.60
2022-08-12T21:20:59.044Z,28.60
2022-08-12T21:23:30.608Z,28.50
2022-08-12T21:26:06.050Z,28.50
2022-08-12T21:28:38.999Z,28.40
2022-08-12T21:32:34.866Z,28.40
2022-08-12T21:34:07.164Z,28.40
2022-08-12T21:36:39.597Z,28.40
2022-08-12T21:39:20.323Z,28.30
2022-08-12T21:41:52.570Z,28.30
2022-08-12T21:45:44.027Z,28.30
2022-08-12T21:47:21.211Z,28.30
2022-08-12T21:50:03.119Z,28.30
2022-08-12T21:52:35.746Z,28.30
2022-08-12T21:55:08.513Z,28.20
2022-08-12T21:57:51.053Z,28.20
2022-08-12T22:00:32.105Z,28.20
2022-08-12T22:04:01.568Z,28.20
2022-08-12T22:06:30.362Z,28.10
2022-08-12T22:09:08.992Z,28.10
2022-08-12T22:11:56.810Z,28.10
2022-08-12T22:14:27.729Z,28.00
2022-08-12T22:16:56.162Z,28.00
2022-08-12T22:19:24.068Z,27.90
2022-08-12T22:21:54.003Z,27.90
2022-08-12T22:24:25.781Z,27.90
2022-08-12T22:26:53.966Z,27.80
2022-08-12T22:29:39.340Z,27.80
2022-08-12T22:32:06.892Z,27.80
2022-08-12T22:34:38.287Z,27.70
2022-08-12T22:37:11.527Z,27.70
2022-08-12T22:39:49.328Z,27.60
2022-08-12T22:42:35.812Z,27.60
2022-08-12T22:45:56.136Z,27.60
2022-08-12T22:48:26.811Z,27.60
2022-08-12T22:50:59.405Z,27.50
2022-08-12T22:53:36.037Z,27.50
2022-08-12T22:56:08.190Z,27.50
2022-08-12T22:58:40.437Z,27.40
2022-08-12T23:01:10.851Z,27.40
2022-08-12T23:03:47.169Z,27.40
2022-08-12T23:06:16.707Z,27.40
2022-08-12T23:08:43.559Z,27.30
2022-08-12T23:11:10.498Z,27.30
2022-08-12T23:13:47.258Z,27.30
2022-08-12T23:16:28.488Z,27.30
2022-08-12T23:19:00.003Z,27.30
2022-08-12T23:22:03.969Z,27.20
2022-08-12T23:24:17.019Z,27.20
2022-08-12T23:29:43.173Z,27.20
2022-08-12T23:32:35.928Z,27.10
2022-08-12T23:35:03.484Z,27.10
2022-08-12T23:37:46.517Z,27.10
2022-08-12T23:40:17.969Z,27.00
2022-08-12T23:42:46.421Z,27.00
2022-08-12T23:45:20.816Z,27.00
2022-08-12T23:47:58.875Z,27.00
2022-08-12T23:50:33.840Z,26.90
2022-08-12T23:53:22.549Z,26.90
2022-08-12T23:55:49.817Z,26.80
2022-08-12T23:58:22.666Z,26.80
